createdAt,value
2023-01-18T00:01:05.462Z,12.50
2023-01-18T00:03:36.219Z,10.27
2023-01-18T00:06:08.951Z,11.20
2023-01-18T00:08:43.356Z,11.70
2023-01-18T00:11:17.029Z,12.93
2023-01-18T00:13:47.483Z,12.40
2023-01-18T00:16:20.278Z,11.17
2023-01-18T00:18:55.011Z,11.70
2023-01-18T00:21:26.927Z,12.30
2023-01-18T00:24:00.175Z,12.47
2023-01-18T00:26:30.195Z,13.90
2023-01-18T00:29:00.161Z,12.90
2023-01-18T00:31:30.813Z,10.10
2023-01-18T00:34:00.829Z,11.57
2023-01-18T00:36:32.052Z,11.27
2023-01-18T00:39:04.652Z,12.67
2023-01-18T00:41:34.670Z,12.17
2023-01-18T00:44:02.120Z,12.63
2023-01-18T00:46:32.378Z,13.40
2023-01-18T00:49:02.319Z,12.27
2023-01-18T00:51:32.329Z,14.27
2023-01-18T00:54:04.944Z,12.93
2023-01-18T00:56:34.970Z,13.70
2023-01-18T00:59:04.973Z,14.30
2023-01-18T01:01:35.121Z,13.13
2023-01-18T01:04:17.714Z,13.20
2023-01-18T01:06:47.906Z,13.40
2023-01-18T01:09:24.649Z,13.37
2023-01-18T01:12:08.996Z,13.67
2023-01-18T01:14:54.849Z,14.00
2023-01-18T01:17:37.675Z,14.07
2023-01-18T01:20:22.826Z,13.73
2023-01-18T01:23:05.539Z,13.90
2023-01-18T01:25:52.004Z,12.03
2023-01-18T01:28:22.045Z,10.93
2023-01-18T01:30:52.205Z,13.57
2023-01-18T01:33:22.251Z,13.00
2023-01-18T01:35:52.472Z,13.60
2023-01-18T01:38:22.472Z,12.60
2023-01-18T01:41:04.558Z,12.10
2023-01-18T01:43:49.758Z,13.50
2023-01-18T01:46:44.782Z,14.00
2023-01-18T01:49:22.127Z,13.00
2023-01-18T01:51:58.282Z,13.00
2023-01-18T01:54:34.723Z,13.07
2023-01-18T01:57:12.932Z,13.07
2023-01-18T01:59:51.774Z,12.97
2023-01-18T02:02:22.260Z,12.07
2023-01-18T02:04:54.321Z,15.27
2023-01-18T02:07:26.348Z,12.40
2023-01-18T02:09:58.073Z,14.90
2023-01-18T02:12:33.067Z,13.70
2023-01-18T02:15:03.810Z,12.97
2023-01-18T02:17:54.076Z,12.70
2023-01-18T02:21:12.137Z,13.00
2023-01-18T02:24:40.612Z,12.97
2023-01-18T02:27:23.798Z,12.80
2023-01-18T02:30:17.995Z,12.67
2023-01-18T02:33:05.861Z,14.40
2023-01-18T02:35:53.415Z,14.30
2023-01-18T02:38:29.177Z,15.40
2023-01-18T02:41:19.568Z,17.00
2023-01-18T02:44:08.756Z,14.63
2023-01-18T02:46:42.439Z,17.47
2023-01-18T02:49:21.060Z,15.90
2023-01-18T02:51:51.144Z,17.10
2023-01-18T02:54:24.962Z,16.90
2023-01-18T02:56:57.467Z,19.17
2023-01-18T02:59:38.030Z,16.73
2023-01-18T03:02:17.777Z,17.97
2023-01-18T03:04:56.894Z,19.33
2023-01-18T03:07:33.384Z,18.83
2023-01-18T03:10:09.315Z,16.10
2023-01-18T03:12:52.251Z,18.40
2023-01-18T03:15:29.648Z,19.80
2023-01-18T03:18:11.863Z,19.73
2023-01-18T03:20:49.509Z,17.27
2023-01-18T03:23:35.721Z,14.13
2023-01-18T03:26:09.459Z,19.00
2023-01-18T03:28:55.902Z,17.83
2023-01-18T03:31:48.807Z,18.43
2023-01-18T03:34:30.263Z,19.27
2023-01-18T03:37:05.871Z,17.20
2023-01-18T03:39:44.019Z,13.47
2023-01-18T03:42:20.442Z,19.00
2023-01-18T03:44:57.507Z,16.50
2023-01-18T03:47:28.200Z,16.43
2023-01-18T03:50:00.870Z,17.20
2023-01-18T03:52:41.857Z,16.53
2023-01-18T03:55:20.545Z,17.27
2023-01-18T03:57:57.869Z,17.57
2023-01-18T04:00:28.345Z,16.20
2023-01-18T04:02:58.752Z,15.60
2023-01-18T04:05:31.779Z,14.80
2023-01-18T04:08:01.724Z,16.10
2023-01-18T04:10:32.001Z,16.47
2023-01-18T04:13:02.356Z,14.73
2023-01-18T04:15:32.372Z,14.40
2023-01-18T04:18:02.355Z,12.80
2023-01-18T04:20:35.139Z,14.77
2023-01-18T04:23:05.197Z,14.53
2023-01-18T04:25:35.238Z,11.83
2023-01-18T04:28:05.373Z,16.07
2023-01-18T04:30:35.487Z,12.40
2023-01-18T04:33:05.461Z,14.90
2023-01-18T04:35:38.001Z,13.30
2023-01-18T04:38:08.013Z,16.67
2023-01-18T04:40:38.004Z,14.37
2023-01-18T04:43:08.016Z,15.20
2023-01-18T04:45:38.318Z,14.67
2023-01-18T04:48:09.250Z,13.63
2023-01-18T04:50:46.618Z,14.63
2023-01-18T04:53:16.772Z,15.93
2023-01-18T04:55:47.075Z,14.40
2023-01-18T04:58:17.173Z,16.50
2023-01-18T05:00:47.327Z,17.67
2023-01-18T05:03:17.386Z,16.00
2023-01-18T05:05:49.917Z,18.50
2023-01-18T05:08:19.894Z,16.23
2023-01-18T05:10:50.575Z,16.77
2023-01-18T05:13:20.590Z,15.13
2023-01-18T05:15:51.207Z,15.83
2023-01-18T05:18:21.209Z,18.10
2023-01-18T05:20:54.390Z,15.40
2023-01-18T05:23:25.055Z,17.70
2023-01-18T05:26:00.458Z,16.87
2023-01-18T05:28:31.223Z,16.00
2023-01-18T05:31:01.214Z,18.73
2023-01-18T05:33:31.225Z,19.77
2023-01-18T05:36:03.795Z,16.20
2023-01-18T05:38:33.971Z,17.17
2023-01-18T05:41:04.054Z,17.10
2023-01-18T05:43:35.789Z,19.77
2023-01-18T05:46:06.317Z,15.60
2023-01-18T05:48:36.499Z,17.37
2023-01-18T05:51:13.927Z,14.07
2023-01-18T05:53:44.011Z,15.77
2023-01-18T05:56:14.101Z,15.00
2023-01-18T05:58:44.160Z,14.97
2023-01-18T06:01:14.230Z,12.90
2023-01-18T06:03:44.257Z,14.23
2023-01-18T06:06:16.855Z,12.13
2023-01-18T06:08:50.380Z,13.30
2023-01-18T06:11:20.692Z,12.60
2023-01-18T06:13:50.885Z,10.40
2023-01-18T06:16:21.062Z,8.70
2023-01-18T06:18:51.066Z,10.63
2023-01-18T06:21:23.735Z,10.37
2023-01-18T06:23:53.961Z,10.97
2023-01-18T06:26:24.057Z,10.43
2023-01-18T06:28:54.042Z,8.70
2023-01-18T06:31:24.042Z,9.77
2023-01-18T06:33:54.076Z,8.73
2023-01-18T06:36:28.126Z,11.07
2023-01-18T06:38:58.097Z,9.30
2023-01-18T06:41:29.410Z,11.67
2023-01-18T06:43:59.637Z,10.00
2023-01-18T06:46:29.718Z,11.57
2023-01-18T06:48:59.818Z,9.93
2023-01-18T06:51:32.568Z,10.40
2023-01-18T06:54:02.820Z,11.77
2023-01-18T06:56:32.974Z,13.37
2023-01-18T06:59:03.314Z,13.40
2023-01-18T07:01:33.560Z,12.47
2023-01-18T07:04:03.843Z,12.40
2023-01-18T07:06:37.722Z,12.53
2023-01-18T07:09:09.648Z,11.47
2023-01-18T07:11:43.239Z,13.57
2023-01-18T07:14:14.339Z,12.33
2023-01-18T07:16:44.557Z,13.00
2023-01-18T07:19:16.402Z,13.60
2023-01-18T07:21:49.819Z,12.30
2023-01-18T07:24:20.439Z,12.60
2023-01-18T07:26:50.598Z,13.43
2023-01-18T07:29:20.599Z,13.00
2023-01-18T07:31:51.652Z,11.60
2023-01-18T07:34:21.762Z,12.60
2023-01-18T07:36:55.135Z,11.60
2023-01-18T07:39:25.353Z,15.00
2023-01-18T07:41:55.341Z,12.40
2023-01-18T07:44:26.694Z,14.70
2023-01-18T07:46:56.655Z,13.53
2023-01-18T07:49:27.146Z,14.13
2023-01-18T07:51:59.814Z,14.10
2023-01-18T07:54:29.757Z,11.80
2023-01-18T07:56:59.773Z,14.07
2023-01-18T07:59:31.042Z,15.63
2023-01-18T08:02:01.183Z,14.70
2023-01-18T08:04:31.206Z,13.93
2023-01-18T08:07:04.102Z,14.43
2023-01-18T08:09:35.636Z,13.20
2023-01-18T08:12:08.018Z,15.00
2023-01-18T08:14:38.362Z,13.40
2023-01-18T08:17:09.094Z,13.90
2023-01-18T08:19:39.580Z,13.20
2023-01-18T08:22:12.508Z,13.40
2023-01-18T08:24:43.157Z,13.80
2023-01-18T08:27:13.231Z,11.00
2023-01-18T08:29:43.251Z,13.97
2023-01-18T08:32:13.269Z,12.10
2023-01-18T08:34:43.340Z,13.10
2023-01-18T08:37:17.009Z,12.70
2023-01-18T08:39:47.022Z,14.30
2023-01-18T08:42:17.010Z,15.40
2023-01-18T08:44:48.527Z,16.13
2023-01-18T08:47:18.895Z,17.20
2023-01-18T08:49:49.436Z,15.00
2023-01-18T08:52:21.967Z,16.07
2023-01-18T08:54:52.544Z,15.97
2023-01-18T08:57:23.286Z,14.13
2023-01-18T08:59:54.797Z,15.97
2023-01-18T09:02:24.852Z,15.30
2023-01-18T09:04:55.609Z,13.73
2023-01-18T09:07:28.260Z,13.33
2023-01-18T09:09:58.223Z,12.90
2023-01-18T09:12:28.345Z,12.10
2023-01-18T09:14:58.514Z,11.40
2023-01-18T09:17:28.532Z,11.53
2023-01-18T09:19:59.329Z,12.17
2023-01-18T09:22:31.870Z,11.80
2023-01-18T09:25:01.922Z,10.47
2023-01-18T09:27:31.913Z,10.80
2023-01-18T09:30:01.966Z,9.20
2023-01-18T09:32:31.941Z,10.03
2023-01-18T09:35:02.143Z,9.73
2023-01-18T09:37:34.752Z,8.87
2023-01-18T09:40:04.765Z,10.60
2023-01-18T09:42:44.683Z,9.97
2023-01-18T09:45:32.245Z,8.70
2023-01-18T09:48:08.344Z,10.80
2023-01-18T09:50:44.784Z,9.80
2023-01-18T09:53:41.073Z,10.17
2023-01-18T09:56:21.185Z,9.30
2023-01-18T09:59:11.821Z,8.97
2023-01-18T10:01:42.278Z,7.97
2023-01-18T10:04:25.201Z,8.27
2023-01-18T10:07:02.350Z,8.53
2023-01-18T10:09:43.233Z,8.27
2023-01-18T10:12:26.227Z,9.10
2023-01-18T10:15:02.662Z,9.20
2023-01-18T10:17:39.974Z,8.47
2023-01-18T10:20:19.292Z,8.07
2023-01-18T10:22:58.067Z,7.87
2023-01-18T10:25:41.834Z,7.90
2023-01-18T10:28:32.326Z,8.27
2023-01-18T10:31:25.507Z,10.23
2023-01-18T10:34:00.394Z,8.20
2023-01-18T10:36:39.589Z,8.50
2023-01-18T10:39:31.684Z,9.60
2023-01-18T10:42:10.141Z,9.37
2023-01-18T10:44:41.262Z,9.83
2023-01-18T10:47:12.112Z,9.17
2023-01-18T10:49:45.084Z,9.00
2023-01-18T10:52:27.832Z,8.87
2023-01-18T10:55:01.640Z,8.67
2023-01-18T10:57:40.429Z,9.33
2023-01-18T11:00:24.450Z,8.80
2023-01-18T11:02:58.079Z,8.20
2023-01-18T11:05:34.838Z,9.27
2023-01-18T11:08:18.974Z,9.00
2023-01-18T11:10:49.361Z,8.63
2023-01-18T11:13:37.610Z,8.87
2023-01-18T11:16:17.740Z,8.40
2023-01-18T11:19:06.312Z,9.17
2023-01-18T11:21:51.602Z,9.20
2023-01-18T11:24:27.558Z,8.77
2023-01-18T11:27:02.643Z,7.40
2023-01-18T11:29:39.697Z,7.70
2023-01-18T11:32:21.997Z,8.90
2023-01-18T11:34:56.027Z,7.80
2023-01-18T11:37:34.849Z,8.90
2023-01-18T11:40:29.391Z,8.23
2023-01-18T11:43:05.079Z,7.47
2023-01-18T11:45:45.646Z,8.67
2023-01-18T11:48:30.291Z,9.27
2023-01-18T11:51:09.680Z,7.80
2023-01-18T11:53:54.307Z,9.73
2023-01-18T11:56:39.922Z,6.47
2023-01-18T11:59:18.602Z,8.40
2023-01-18T12:02:22.792Z,9.00
2023-01-18T12:05:25.827Z,7.93
2023-01-18T12:08:14.679Z,7.97
2023-01-18T12:11:00.775Z,8.17
2023-01-18T12:13:42.091Z,8.50
2023-01-18T12:16:23.852Z,6.70
2023-01-18T12:19:33.148Z,7.23
2023-01-18T12:22:35.942Z,7.40
2023-01-18T12:25:24.143Z,6.97
2023-01-18T12:28:08.777Z,6.87
2023-01-18T12:30:55.761Z,5.63
2023-01-18T12:33:46.762Z,7.30
2023-01-18T12:36:39.921Z,6.83
2023-01-18T12:39:29.902Z,6.47
2023-01-18T12:42:07.192Z,7.27
2023-01-18T12:44:55.658Z,6.40
2023-01-18T12:47:40.415Z,7.20
2023-01-18T12:50:26.666Z,6.20
2023-01-18T12:53:06.771Z,6.03
2023-01-18T12:55:41.173Z,6.50
2023-01-18T12:58:22.357Z,7.33
2023-01-18T13:00:57.354Z,7.13
2023-01-18T13:03:34.449Z,6.30
2023-01-18T13:06:06.137Z,6.83
2023-01-18T13:08:45.500Z,6.90
2023-01-18T13:11:22.390Z,7.13
2023-01-18T13:14:07.128Z,6.30
2023-01-18T13:16:51.086Z,6.47
2023-01-18T13:19:29.327Z,7.20
2023-01-18T13:22:11.843Z,6.20
2023-01-18T13:25:16.221Z,5.50
2023-01-18T13:28:01.309Z,6.10
2023-01-18T13:30:35.034Z,5.70
2023-01-18T13:33:17.153Z,6.33
2023-01-18T13:35:57.713Z,6.57
2023-01-18T13:38:41.084Z,5.50
2023-01-18T13:41:17.005Z,5.70
2023-01-18T13:44:07.653Z,6.63
2023-01-18T13:46:39.604Z,7.30
2023-01-18T13:49:38.221Z,7.40
2023-01-18T13:52:35.628Z,5.47
2023-01-18T13:55:31.251Z,7.23
2023-01-18T13:58:04.291Z,6.63
2023-01-18T14:00:36.814Z,5.37
2023-01-18T14:03:17.740Z,6.40
2023-01-18T14:05:50.008Z,5.70
2023-01-18T14:08:27.702Z,5.00
2023-01-18T14:11:05.502Z,4.67
2023-01-18T14:14:08.365Z,5.77
2023-01-18T14:16:55.228Z,5.27
2023-01-18T14:19:27.537Z,5.70
2023-01-18T14:22:20.139Z,5.70
2023-01-18T14:25:27.363Z,5.40
2023-01-18T14:28:10.557Z,5.77
2023-01-18T14:30:48.624Z,5.00
2023-01-18T14:33:26.548Z,5.40
2023-01-18T14:36:01.119Z,5.97
2023-01-18T14:38:32.981Z,5.23
2023-01-18T14:41:08.608Z,5.30
2023-01-18T14:43:45.358Z,6.70
2023-01-18T14:46:25.618Z,4.60
2023-01-18T14:49:01.738Z,6.40
2023-01-18T14:51:32.700Z,3.77
2023-01-18T14:54:05.216Z,5.77
2023-01-18T14:56:43.625Z,5.67
2023-01-18T14:59:24.466Z,5.77
2023-01-18T15:02:00.775Z,4.90
2023-01-18T15:04:36.145Z,4.60
2023-01-18T15:07:13.735Z,4.67
2023-01-18T15:09:45.748Z,5.63
2023-01-18T15:12:25.332Z,5.67
2023-01-18T15:14:55.612Z,5.43
2023-01-18T15:17:29.303Z,4.90
2023-01-18T15:20:05.063Z,5.27
2023-01-18T15:22:40.613Z,4.70
2023-01-18T15:25:22.521Z,5.90
2023-01-18T15:27:54.878Z,5.40
2023-01-18T15:30:27.157Z,4.57
2023-01-18T15:33:02.303Z,4.43
2023-01-18T15:35:33.502Z,5.57
2023-01-18T15:38:05.142Z,5.50
2023-01-18T15:40:35.890Z,6.20
2023-01-18T15:43:11.917Z,5.83
2023-01-18T15:45:50.965Z,4.40
2023-01-18T15:48:27.204Z,4.70
2023-01-18T15:51:06.884Z,4.40
2023-01-18T15:53:41.497Z,4.97
2023-01-18T15:56:19.607Z,5.50
2023-01-18T15:58:55.695Z,5.93
2023-01-18T16:01:29.452Z,4.90
2023-01-18T16:04:05.664Z,4.77
2023-01-18T16:06:40.382Z,5.43
2023-01-18T16:09:23.192Z,10.20
2023-01-18T16:11:57.096Z,9.97
2023-01-18T16:14:36.495Z,9.03
2023-01-18T16:17:10.168Z,7.10
2023-01-18T16:19:46.226Z,6.00
2023-01-18T16:22:24.535Z,7.30
2023-01-18T16:24:59.830Z,8.13
2023-01-18T16:27:34.028Z,7.97
2023-01-18T16:30:20.272Z,5.60
2023-01-18T16:32:51.022Z,5.60
2023-01-18T16:35:26.010Z,5.67
2023-01-18T16:37:57.992Z,4.30
2023-01-18T16:40:28.236Z,5.57
2023-01-18T16:43:02.563Z,6.20
2023-01-18T16:45:36.589Z,5.60
2023-01-18T16:48:08.994Z,5.70
2023-01-18T16:50:41.717Z,5.60
2023-01-18T16:53:11.845Z,6.80
2023-01-18T16:55:44.018Z,5.87
2023-01-18T16:58:16.577Z,5.47
2023-01-18T17:00:57.546Z,5.70
2023-01-18T17:03:28.586Z,6.00
2023-01-18T17:06:01.852Z,5.23
2023-01-18T17:08:32.517Z,6.70
2023-01-18T17:11:02.540Z,6.87
2023-01-18T17:13:32.515Z,6.50
2023-01-18T17:16:02.631Z,5.33
2023-01-18T17:18:32.589Z,7.20
2023-01-18T17:21:05.210Z,6.27
2023-01-18T17:23:35.183Z,6.20
2023-01-18T17:26:05.449Z,6.47
2023-01-18T17:28:35.478Z,7.80
2023-01-18T17:31:05.508Z,5.93
2023-01-18T17:33:38.593Z,7.03
2023-01-18T17:36:12.055Z,6.20
2023-01-18T17:38:42.042Z,6.10
2023-01-18T17:41:26.768Z,6.13
2023-01-18T17:43:58.083Z,5.97
2023-01-18T17:46:28.189Z,6.40
2023-01-18T17:48:58.243Z,6.60
2023-01-18T17:51:32.175Z,7.50
2023-01-18T17:54:03.678Z,5.57
2023-01-18T17:56:36.711Z,5.80
2023-01-18T17:59:10.653Z,5.37
2023-01-18T18:01:40.854Z,5.43
2023-01-18T18:04:10.981Z,6.10
2023-01-18T18:06:53.750Z,6.10
2023-01-18T18:09:24.672Z,6.73
2023-01-18T18:11:55.434Z,7.00
2023-01-18T18:14:25.650Z,5.87
2023-01-18T18:16:55.761Z,10.00
2023-01-18T18:19:25.904Z,10.20
2023-01-18T18:21:59.158Z,9.93
2023-01-18T18:24:29.704Z,10.27
2023-01-18T18:27:01.497Z,11.87
2023-01-18T18:29:32.191Z,11.20
2023-01-18T18:32:02.232Z,12.50
2023-01-18T18:34:32.304Z,13.20
2023-01-18T18:37:06.091Z,9.77
2023-01-18T18:39:36.712Z,10.67
2023-01-18T18:42:07.016Z,10.30
2023-01-18T18:44:36.969Z,11.00
2023-01-18T18:47:10.093Z,11.73
2023-01-18T18:49:40.495Z,10.90
2023-01-18T18:52:13.135Z,13.20
2023-01-18T18:54:43.141Z,12.70
2023-01-18T18:57:13.131Z,13.00
2023-01-18T18:59:43.109Z,12.00
2023-01-18T19:02:16.452Z,13.57
2023-01-18T19:04:46.466Z,13.40
2023-01-18T19:07:19.715Z,18.40
2023-01-18T19:09:49.714Z,17.77
2023-01-18T19:12:19.760Z,13.33
2023-01-18T19:14:49.857Z,17.17
2023-01-18T19:17:29.813Z,16.60
2023-01-18T19:20:01.219Z,16.80
2023-01-18T19:22:33.899Z,16.77
2023-01-18T19:25:04.234Z,13.80
2023-01-18T19:27:34.342Z,16.30
2023-01-18T19:30:05.453Z,15.70
2023-01-18T19:32:35.571Z,15.30
2023-01-18T19:35:05.734Z,17.33
2023-01-18T19:37:38.715Z,15.43
2023-01-18T19:40:11.790Z,15.20
2023-01-18T19:42:44.450Z,14.90
2023-01-18T19:45:23.144Z,12.60
2023-01-18T19:47:58.373Z,14.90
2023-01-18T19:50:31.830Z,17.07
2023-01-18T19:53:04.609Z,14.17
2023-01-18T19:55:36.497Z,17.33
2023-01-18T19:58:06.642Z,13.90
2023-01-18T20:00:37.072Z,11.90
2023-01-18T20:03:07.263Z,13.67
2023-01-18T20:05:37.267Z,13.60
2023-01-18T20:08:09.942Z,14.77
2023-01-18T20:10:40.081Z,13.80
2023-01-18T20:13:10.106Z,13.17
2023-01-18T20:15:45.448Z,13.13
2023-01-18T20:18:15.494Z,9.57
2023-01-18T20:20:45.614Z,11.70
2023-01-18T20:23:18.198Z,11.37
2023-01-18T20:25:48.208Z,11.90
2023-01-18T20:28:18.213Z,14.13
2023-01-18T20:30:51.853Z,12.40
2023-01-18T20:33:22.226Z,14.63
2023-01-18T20:35:52.242Z,13.37
2023-01-18T20:38:24.858Z,16.53
2023-01-18T20:40:54.915Z,16.20
2023-01-18T20:43:24.915Z,12.83
2023-01-18T20:46:03.367Z,13.50
2023-01-18T20:48:35.103Z,13.80
2023-01-18T20:51:07.516Z,15.67
2023-01-18T20:53:40.649Z,12.57
2023-01-18T20:56:28.414Z,15.60
2023-01-18T20:58:59.641Z,15.23
2023-01-18T21:01:32.722Z,14.73
2023-01-18T21:04:05.507Z,14.90
2023-01-18T21:06:36.199Z,14.73
2023-01-18T21:09:08.797Z,15.83
2023-01-18T21:11:38.903Z,14.80
2023-01-18T21:14:08.918Z,14.33
2023-01-18T21:16:38.917Z,16.70
2023-01-18T21:19:10.117Z,16.00
2023-01-18T21:21:40.193Z,13.37
2023-01-18T21:24:13.607Z,13.47
2023-01-18T21:26:43.589Z,13.07
2023-01-18T21:29:13.610Z,11.70
2023-01-18T21:31:43.690Z,12.60
2023-01-18T21:34:14.319Z,12.10
2023-01-18T21:36:44.344Z,12.93
2023-01-18T21:39:18.505Z,13.63
2023-01-18T21:42:01.262Z,14.17
2023-01-18T21:44:43.826Z,13.33
2023-01-18T21:47:13.798Z,11.80
2023-01-18T21:50:17.804Z,13.27
2023-01-18T21:53:02.665Z,12.80
2023-01-18T21:55:35.697Z,14.17
2023-01-18T21:58:18.161Z,14.17
2023-01-18T22:00:48.237Z,11.67
2023-01-18T22:03:18.640Z,13.37
2023-01-18T22:05:46.095Z,14.47
2023-01-18T22:08:16.107Z,13.83
2023-01-18T22:10:51.492Z,10.77
2023-01-18T22:13:21.565Z,12.03
2023-01-18T22:15:51.501Z,10.97
2023-01-18T22:18:21.465Z,11.13
2023-01-18T22:20:59.294Z,10.87
2023-01-18T22:23:29.437Z,13.77
2023-01-18T22:26:02.066Z,11.60
2023-01-18T22:28:32.130Z,11.67
2023-01-18T22:31:06.594Z,14.73
2023-01-18T22:33:36.850Z,10.30
2023-01-18T22:36:07.973Z,14.00
2023-01-18T22:38:38.591Z,11.97
2023-01-18T22:41:14.378Z,12.07
2023-01-18T22:43:45.545Z,12.93
2023-01-18T22:46:18.745Z,11.43
2023-01-18T22:48:49.774Z,11.83
2023-01-18T22:51:24.040Z,11.73
2023-01-18T22:53:56.348Z,11.37
2023-01-18T22:56:29.037Z,11.63
2023-01-18T22:59:00.094Z,10.70
2023-01-18T23:01:33.572Z,12.10
2023-01-18T23:04:06.425Z,12.80
2023-01-18T23:06:42.463Z,12.53
2023-01-18T23:09:13.246Z,11.00
2023-01-18T23:11:47.649Z,14.60
2023-01-18T23:14:30.461Z,12.90
2023-01-18T23:17:13.111Z,12.63
2023-01-18T23:19:43.147Z,12.77
2023-01-18T23:22:13.176Z,14.43
2023-01-18T23:24:43.437Z,13.30
2023-01-18T23:27:16.001Z,12.10
2023-01-18T23:29:46.740Z,14.67
2023-01-18T23:32:16.701Z,13.60
2023-01-18T23:34:47.901Z,11.90
2023-01-18T23:37:17.871Z,13.77
2023-01-18T23:40:00.377Z,11.57
2023-01-18T23:42:45.492Z,11.40
2023-01-18T23:45:29.133Z,11.93
2023-01-18T23:48:12.337Z,10.63
2023-01-18T23:50:54.834Z,11.20
2023-01-18T23:53:37.386Z,14.70
2023-01-18T23:56:07.649Z,12.57
2023-01-18T23:58:40.875Z,14.77
